Time;durP1;ratioP1;P1;durP2;ratioP2;P2;SDS_P1;SDS_P2;PMS_P1;PMS_P2;Temp;Humidity;BMP_temperature;BMP_pressure;BME280_temperature;BME280_humidity;BME280_pressure;Samples;Min_cycle;Max_cycle;Signal;HPM_P1;HPM_P2
2022/01/09 00:00:23;;;;;;;1.83;1.60;;;5.80;97.50;;;;;;950886;146;27362;-73
2022/01/09 00:02:48;;;;;;;2.20;2.00;;;5.80;97.70;;;;;;949167;151;27312;-74
2022/01/09 00:05:15;;;;;;;2.17;1.50;;;5.80;97.70;;;;;;960363;148;27863;-73
2022/01/09 00:07:41;;;;;;;2.23;2.03;;;5.80;97.90;;;;;;967694;148;27405;-73
2022/01/09 00:10:08;;;;;;;1.93;1.40;;;5.90;97.90;;;;;;947494;151;27258;-73
2022/01/09 00:12:35;;;;;;;2.10;1.87;;;5.90;98.00;;;;;;961444;148;27402;-73
2022/01/09 00:15:01;;;;;;;1.80;1.70;;;5.90;98.10;;;;;;957758;148;27368;-73
2022/01/09 00:17:28;;;;;;;1.80;1.60;;;5.90;98.10;;;;;;960880;148;27379;-73
2022/01/09 00:19:57;;;;;;;1.40;1.30;;;5.90;98.10;;;;;;967069;148;27229;-73
2022/01/09 00:22:35;;;;;;;1.63;1.53;;;5.90;98.10;;;;;;953614;148;27253;-73
2022/01/09 00:24:51;;;;;;;1.90;1.70;;;6.00;98.20;;;;;;941046;151;27871;-73
2022/01/09 00:27:17;;;;;;;1.77;1.67;;;6.00;98.30;;;;;;965591;147;27400;-73
2022/01/09 00:29:44;;;;;;;1.60;1.50;;;6.00;98.30;;;;;;949789;149;27337;-73
2022/01/09 00:32:10;;;;;;;1.73;1.63;;;6.00;98.30;;;;;;953052;148;27344;-73
2022/01/09 00:34:37;;;;;;;2.10;1.80;;;6.00;98.30;;;;;;946238;149;27310;-73
2022/01/09 00:37:04;;;;;;;2.03;1.70;;;6.00;98.40;;;;;;966250;148;27369;-73
2022/01/09 00:39:30;;;;;;;1.90;1.80;;;6.00;98.40;;;;;;961254;147;27300;-73
2022/01/09 00:41:57;;;;;;;1.67;1.57;;;6.00;98.50;;;;;;958645;145;27901;-73
2022/01/09 00:44:23;;;;;;;1.50;1.40;;;6.00;98.60;;;;;;962193;145;27297;-72
2022/01/09 00:46:50;;;;;;;1.53;1.17;;;6.00;98.60;;;;;;956886;149;27393;-73
2022/01/09 00:49:16;;;;;;;1.50;1.40;;;6.10;98.70;;;;;;950293;148;27402;-72
2022/01/09 00:51:43;;;;;;;1.50;1.40;;;6.10;98.80;;;;;;959226;148;27358;-72
2022/01/09 00:54:10;;;;;;;1.33;1.20;;;6.10;98.80;;;;;;958462;148;27335;-73
2022/01/09 00:56:36;;;;;;;1.27;1.17;;;6.10;98.80;;;;;;959688;147;27377;-73
2022/01/09 00:59:03;;;;;;;2.53;1.87;;;6.10;98.80;;;;;;961579;146;27351;-73
2022/01/09 01:01:29;;;;;;;1.70;1.60;;;6.10;98.70;;;;;;965317;144;27340;-73
2022/01/09 01:03:56;;;;;;;2.40;1.50;;;6.20;98.90;;;;;;968329;144;27348;-73
2022/01/09 01:06:23;;;;;;;1.60;1.50;;;6.20;98.90;;;;;;961503;148;27350;-73
2022/01/09 01:08:49;;;;;;;1.33;1.23;;;6.20;99.00;;;;;;969875;144;27287;-72
2022/01/09 01:11:16;;;;;;;1.50;1.27;;;6.20;98.90;;;;;;985662;144;27314;-73
2022/01/09 01:13:42;;;;;;;1.97;1.20;;;6.20;99.00;;;;;;952067;147;27330;-73
2022/01/09 01:16:09;;;;;;;1.37;1.27;;;6.20;99.00;;;;;;955530;147;27454;-73
2022/01/09 01:18:35;;;;;;;1.30;1.20;;;6.20;99.00;;;;;;957807;147;27446;-73
2022/01/09 01:21:02;;;;;;;1.73;1.30;;;6.20;99.00;;;;;;960169;147;27417;-73
2022/01/09 01:23:29;;;;;;;1.33;1.23;;;6.20;99.00;;;;;;954365;147;27247;-73
2022/01/09 01:26:00;;;;;;;1.20;1.20;;;6.20;99.00;;;;;;951030;147;27414;-73
2022/01/09 01:28:22;;;;;;;1.50;1.40;;;6.20;99.10;;;;;;956942;149;27350;-73
2022/01/09 01:30:48;;;;;;;1.60;1.40;;;6.20;99.20;;;;;;959521;147;27218;-73
2022/01/09 01:33:15;;;;;;;1.20;1.20;;;6.20;99.20;;;;;;956331;150;27317;-73
2022/01/09 01:35:42;;;;;;;1.40;1.30;;;6.20;99.20;;;;;;955247;147;27482;-72
2022/01/09 01:38:08;;;;;;;1.83;1.60;;;6.20;99.30;;;;;;953820;148;27298;-73
2022/01/09 01:40:35;;;;;;;1.57;1.43;;;6.30;99.40;;;;;;951806;147;27345;-72
2022/01/09 01:43:01;;;;;;;1.30;1.20;;;6.30;99.40;;;;;;951536;147;27287;-72
2022/01/09 01:45:28;;;;;;;1.57;1.47;;;6.30;99.40;;;;;;955998;147;27347;-73
2022/01/09 01:47:54;;;;;;;1.80;1.30;;;6.20;99.40;;;;;;959213;146;27259;-73
2022/01/09 01:50:21;;;;;;;1.80;1.63;;;6.30;99.50;;;;;;945463;147;27299;-73
2022/01/09 01:52:49;;;;;;;1.10;1.10;;;6.30;99.50;;;;;;949152;147;27955;-72
2022/01/09 01:55:14;;;;;;;1.47;1.40;;;6.30;99.60;;;;;;970081;147;27275;-73
2022/01/09 01:57:41;;;;;;;1.43;1.33;;;6.30;99.60;;;;;;949465;146;27319;-73
2022/01/09 02:00:10;;;;;;;1.30;1.20;;;6.30;99.70;;;;;;948052;147;27386;-73
2022/01/09 02:02:37;;;;;;;1.60;1.50;;;6.30;99.60;;;;;;953282;146;27435;-73
2022/01/09 02:05:07;;;;;;;1.37;1.37;;;6.30;99.60;;;;;;951329;149;27334;-73
2022/01/09 02:07:33;;;;;;;1.40;1.30;;;6.30;99.60;;;;;;955164;147;27410;-73
2022/01/09 02:10:00;;;;;;;1.40;1.30;;;6.30;99.70;;;;;;958551;147;27286;-73
2022/01/09 02:12:30;;;;;;;1.10;1.00;;;6.30;99.80;;;;;;959201;149;27421;-73
2022/01/09 02:14:56;;;;;;;1.47;1.37;;;6.30;99.80;;;;;;959182;147;27374;-73
2022/01/09 02:17:22;;;;;;;1.77;1.43;;;6.30;99.70;;;;;;952470;147;27441;-72
2022/01/09 02:19:55;;;;;;;1.33;1.23;;;6.30;99.80;;;;;;951776;147;27281;-73
2022/01/09 02:22:23;;;;;;;1.07;1.03;;;6.30;99.90;;;;;;953168;147;27381;-73
2022/01/09 02:24:49;;;;;;;1.30;1.20;;;6.30;99.90;;;;;;948592;146;27325;-72
2022/01/09 02:27:14;;;;;;;1.27;1.20;;;6.30;99.90;;;;;;950069;149;27696;-73
2022/01/09 02:29:41;;;;;;;1.27;1.27;;;6.30;99.90;;;;;;958793;147;27390;-72
2022/01/09 02:32:08;;;;;;;1.03;1.03;;;6.30;99.90;;;;;;947507;149;27415;-73
2022/01/09 02:34:34;;;;;;;1.33;1.23;;;6.30;99.90;;;;;;947504;147;27260;-73
2022/01/09 02:37:01;;;;;;;1.00;1.00;;;6.30;99.90;;;;;;954103;147;27333;-73
2022/01/09 02:39:27;;;;;;;1.27;1.20;;;6.30;99.90;;;;;;955619;147;27349;-72
2022/01/09 02:41:54;;;;;;;1.33;1.23;;;6.30;99.90;;;;;;946953;149;27393;-73
2022/01/09 02:44:21;;;;;;;0.97;0.97;;;6.30;99.90;;;;;;946352;149;27273;-72
2022/01/09 02:47:03;;;;;;;1.30;1.20;;;6.30;99.90;;;;;;956329;149;27384;-72
2022/01/09 02:49:25;;;;;;;1.00;1.00;;;6.30;99.90;;;;;;955016;147;27248;-73
2022/01/09 02:51:49;;;;;;;1.20;1.10;;;6.30;99.90;;;;;;957017;147;27824;-73
2022/01/09 02:57:04;;;;;;;1.10;1.10;;;6.30;99.90;;;;;;951045;147;28138;-73
2022/01/09 02:59:30;;;;;;;1.00;1.00;;;6.40;99.90;;;;;;952691;147;27922;-73
2022/01/09 03:02:00;;;;;;;2.03;1.10;;;6.40;99.90;;;;;;959564;147;27441;-73
2022/01/09 03:04:29;;;;;;;1.00;1.00;;;6.40;99.90;;;;;;958213;147;27323;-73
2022/01/09 03:06:55;;;;;;;1.30;1.20;;;6.30;99.90;;;;;;949741;147;27609;-73
2022/01/09 03:09:22;;;;;;;1.00;1.00;;;6.40;99.90;;;;;;947121;147;27841;-72
2022/01/09 03:11:50;;;;;;;1.40;1.30;;;6.40;99.90;;;;;;951565;147;27338;-72
2022/01/09 03:14:15;;;;;;;0.90;0.90;;;6.40;99.90;;;;;;951675;147;27298;-73
2022/01/09 03:16:42;;;;;;;1.37;1.10;;;6.40;99.90;;;;;;955921;147;27273;-73
2022/01/09 03:19:08;;;;;;;0.93;0.93;;;6.40;99.90;;;;;;953981;147;27315;-73
2022/01/09 03:21:35;;;;;;;1.13;1.07;;;6.40;99.90;;;;;;961672;147;28138;-73
2022/01/09 03:24:02;;;;;;;0.80;0.80;;;6.40;99.90;;;;;;963318;147;27264;-72
2022/01/09 03:26:28;;;;;;;0.87;0.87;;;6.40;99.90;;;;;;960419;147;27381;-72
2022/01/09 03:28:55;;;;;;;0.90;0.90;;;6.40;99.90;;;;;;948330;148;27317;-73
2022/01/09 03:31:21;;;;;;;1.13;1.00;;;6.40;99.90;;;;;;955379;148;27310;-73
2022/01/09 03:33:48;;;;;;;0.93;0.93;;;6.40;99.90;;;;;;956577;148;27733;-73
2022/01/09 03:36:14;;;;;;;0.93;0.93;;;6.40;99.90;;;;;;959741;148;27293;-73
2022/01/09 03:38:41;;;;;;;0.90;0.90;;;6.50;99.90;;;;;;949500;149;27791;-72
2022/01/09 03:41:08;;;;;;;0.70;0.70;;;6.50;99.90;;;;;;951438;147;27402;-72
2022/01/09 03:43:34;;;;;;;1.00;1.00;;;6.50;99.90;;;;;;944750;149;27357;-73
2022/01/09 03:46:01;;;;;;;0.87;0.83;;;6.50;99.90;;;;;;945292;148;27458;-73
2022/01/09 03:48:29;;;;;;;0.60;0.60;;;6.50;99.90;;;;;;955506;147;27390;-73
2022/01/09 03:50:54;;;;;;;1.00;0.90;;;6.60;99.90;;;;;;953946;146;27829;-73
2022/01/09 03:53:21;;;;;;;0.90;0.90;;;6.60;99.90;;;;;;961921;146;27315;-79
2022/01/09 03:55:47;;;;;;;0.53;0.53;;;6.60;99.90;;;;;;945377;147;27325;-76
2022/01/09 03:58:14;;;;;;;0.83;0.83;;;6.60;99.90;;;;;;951509;149;27334;-80
2022/01/09 04:00:40;;;;;;;0.50;0.50;;;6.70;99.90;;;;;;952878;147;27269;-81
2022/01/09 04:03:07;;;;;;;0.50;0.50;;;6.70;99.90;;;;;;950737;147;27254;-82
2022/01/09 04:05:33;;;;;;;0.60;0.60;;;6.70;99.90;;;;;;966303;147;27877;-81
2022/01/09 04:08:00;;;;;;;0.47;0.47;;;6.80;99.90;;;;;;956042;147;27406;-81
2022/01/09 04:10:29;;;;;;;0.50;0.50;;;6.80;99.90;;;;;;950426;147;27308;-81
2022/01/09 04:12:59;;;;;;;0.50;0.50;;;6.90;99.90;;;;;;958155;147;27255;-82
2022/01/09 04:15:20;;;;;;;0.50;0.50;;;7.00;99.90;;;;;;953073;147;27484;-82
2022/01/09 04:17:53;;;;;;;0.47;0.47;;;7.10;99.90;;;;;;956013;147;27329;-82
2022/01/09 04:20:21;;;;;;;0.57;0.57;;;7.20;99.90;;;;;;955100;147;27367;-81
2022/01/09 04:22:48;;;;;;;0.37;0.37;;;7.30;99.90;;;;;;962581;147;27411;-81
2022/01/09 04:25:15;;;;;;;0.57;0.57;;;7.30;99.90;;;;;;947906;147;27370;-83
2022/01/09 04:27:44;;;;;;;0.33;0.33;;;7.40;99.90;;;;;;971079;147;27306;-82
2022/01/09 04:30:13;;;;;;;0.20;0.20;;;7.50;99.90;;;;;;956200;146;27289;-80
2022/01/09 04:32:40;;;;;;;0.77;0.40;;;7.50;99.90;;;;;;955042;147;27428;-80
2022/01/09 04:35:07;;;;;;;0.50;0.30;;;7.60;99.90;;;;;;951347;147;27815;-83
2022/01/09 04:37:34;;;;;;;0.30;0.30;;;7.60;99.90;;;;;;951503;147;27378;-82
2022/01/09 04:40:00;;;;;;;0.40;0.40;;;7.60;99.90;;;;;;950683;147;27289;-82
2022/01/09 04:42:34;;;;;;;0.30;0.30;;;7.60;99.90;;;;;;959947;149;27285;-80
2022/01/09 04:44:53;;;;;;;0.20;0.20;;;7.60;99.90;;;;;;954675;147;27310;-81
2022/01/09 04:47:20;;;;;;;0.30;0.30;;;7.60;99.90;;;;;;972501;147;27411;-82
2022/01/09 04:49:48;;;;;;;0.30;0.30;;;7.70;99.90;;;;;;945868;147;27396;-82
2022/01/09 04:52:17;;;;;;;0.27;0.27;;;7.70;99.90;;;;;;961426;147;27313;-79
2022/01/09 04:54:39;;;;;;;0.30;0.30;;;7.70;99.90;;;;;;965192;146;27342;-82
2022/01/09 04:57:06;;;;;;;0.20;0.20;;;7.60;99.90;;;;;;953635;149;27261;-83
2022/01/09 04:59:33;;;;;;;0.30;0.30;;;7.60;99.90;;;;;;947733;147;27787;-82
2022/01/09 05:01:59;;;;;;;0.20;0.20;;;7.60;99.90;;;;;;955218;146;27421;-81
2022/01/09 05:04:26;;;;;;;0.27;0.27;;;7.60;99.90;;;;;;960265;148;27359;-82
2022/01/09 05:06:52;;;;;;;0.20;0.20;;;7.60;99.90;;;;;;953206;147;27278;-81
2022/01/09 05:09:19;;;;;;;0.20;0.20;;;7.60;99.90;;;;;;950364;147;27380;-83
2022/01/09 05:11:45;;;;;;;0.20;0.20;;;7.60;99.90;;;;;;967554;146;27455;-81
2022/01/09 05:14:12;;;;;;;0.20;0.20;;;7.60;99.90;;;;;;953382;146;27331;-82
2022/01/09 05:16:42;;;;;;;0.20;0.20;;;7.50;99.90;;;;;;972426;146;27272;-81
2022/01/09 05:19:16;;;;;;;0.70;0.30;;;7.50;99.90;;;;;;955544;146;27298;-82
2022/01/09 05:21:32;;;;;;;0.20;0.20;;;7.50;99.90;;;;;;957304;146;27352;-82
2022/01/09 05:23:58;;;;;;;0.20;0.20;;;7.50;99.90;;;;;;965218;146;27409;-82
2022/01/09 05:26:25;;;;;;;0.30;0.30;;;7.50;99.90;;;;;;952400;146;27324;-82
2022/01/09 05:28:54;;;;;;;0.20;0.20;;;7.50;99.90;;;;;;971815;146;27837;-82
2022/01/09 05:31:21;;;;;;;0.63;0.30;;;7.50;99.90;;;;;;955375;148;27396;-83
2022/01/09 05:33:48;;;;;;;0.20;0.20;;;7.50;99.90;;;;;;974379;146;27481;-82
2022/01/09 05:36:14;;;;;;;0.20;0.20;;;7.50;99.90;;;;;;950509;148;27330;-81
2022/01/09 05:38:41;;;;;;;0.20;0.20;;;7.50;99.90;;;;;;967509;146;27298;-82
2022/01/09 05:41:07;;;;;;;0.20;0.20;;;7.50;99.90;;;;;;962921;146;27313;-82
2022/01/09 05:43:34;;;;;;;0.30;0.30;;;7.50;99.90;;;;;;967995;146;27400;-81
2022/01/09 05:46:01;;;;;;;1.40;0.30;;;7.50;99.90;;;;;;964107;146;27326;-81
2022/01/09 05:48:27;;;;;;;0.20;0.20;;;7.50;99.90;;;;;;958773;148;27296;-81
2022/01/09 05:50:54;;;;;;;1.23;0.30;;;7.50;99.90;;;;;;950905;148;27397;-82
2022/01/09 05:53:23;;;;;;;0.30;0.30;;;7.50;99.90;;;;;;972281;146;27287;-82
2022/01/09 05:55:50;;;;;;;0.40;0.40;;;7.50;99.90;;;;;;962984;146;27278;-82
2022/01/09 05:58:16;;;;;;;0.40;0.40;;;7.40;99.90;;;;;;960931;146;27399;-83
2022/01/09 06:00:43;;;;;;;0.10;0.10;;;7.40;99.90;;;;;;974603;146;27294;-81
2022/01/09 06:03:09;;;;;;;0.10;0.10;;;7.40;99.90;;;;;;961673;146;27344;-82
2022/01/09 06:05:39;;;;;;;0.30;0.30;;;7.40;99.90;;;;;;972981;146;27703;-82
2022/01/09 06:08:05;;;;;;;0.30;0.30;;;7.40;99.90;;;;;;970314;146;27309;-82
2022/01/09 06:10:34;;;;;;;0.60;0.53;;;7.40;99.90;;;;;;965276;146;27323;-84
2022/01/09 06:13:01;;;;;;;0.40;0.40;;;7.30;99.90;;;;;;954061;148;27292;-83
2022/01/09 06:15:27;;;;;;;0.30;0.30;;;7.30;99.90;;;;;;965966;146;27377;-81
2022/01/09 06:17:54;;;;;;;0.30;0.30;;;7.30;99.90;;;;;;953060;148;27335;-81
2022/01/09 06:20:21;;;;;;;0.30;0.30;;;7.30;99.90;;;;;;963250;146;27298;-82
2022/01/09 06:22:47;;;;;;;0.50;0.40;;;7.30;99.90;;;;;;960777;146;27273;-80
2022/01/09 06:25:15;;;;;;;0.83;0.40;;;7.30;99.90;;;;;;957764;146;27335;-80
2022/01/09 06:27:41;;;;;;;0.47;0.37;;;7.30;99.90;;;;;;964603;146;27677;-81
2022/01/09 06:30:07;;;;;;;0.50;0.50;;;7.30;99.90;;;;;;958286;148;27309;-82
2022/01/09 06:32:34;;;;;;;0.50;0.50;;;7.30;99.90;;;;;;966268;146;27393;-79
2022/01/09 06:35:00;;;;;;;1.10;0.67;;;7.30;99.90;;;;;;961076;146;27360;-81
2022/01/09 06:37:27;;;;;;;0.60;0.60;;;7.30;99.90;;;;;;959041;148;27299;-80
2022/01/09 06:39:53;;;;;;;1.17;0.73;;;7.30;99.90;;;;;;961682;146;27239;-81
2022/01/09 06:42:20;;;;;;;0.87;0.80;;;7.30;99.90;;;;;;953830;148;27351;-75
2022/01/09 06:44:46;;;;;;;0.73;0.73;;;7.30;99.90;;;;;;965650;146;27461;-81
2022/01/09 06:47:13;;;;;;;0.73;0.60;;;7.30;99.90;;;;;;961906;146;27395;-82
2022/01/09 06:49:40;;;;;;;1.50;1.00;;;7.30;99.90;;;;;;960780;146;27268;-83
2022/01/09 06:52:06;;;;;;;0.73;0.60;;;7.30;99.90;;;;;;966141;146;27709;-80
2022/01/09 06:54:33;;;;;;;2.43;0.70;;;7.20;99.90;;;;;;961139;146;27327;-82
2022/01/09 06:56:59;;;;;;;1.60;1.00;;;7.30;99.90;;;;;;970133;146;27254;-83
2022/01/09 06:59:26;;;;;;;1.67;0.73;;;7.30;99.90;;;;;;966623;146;27270;-81
2022/01/09 07:01:53;;;;;;;0.90;0.70;;;7.30;99.90;;;;;;955889;146;27323;-81
2022/01/09 07:04:19;;;;;;;1.33;0.93;;;7.30;99.90;;;;;;959295;146;27478;-81
2022/01/09 07:06:46;;;;;;;1.13;0.97;;;7.30;99.90;;;;;;947585;149;27372;-82
2022/01/09 07:09:12;;;;;;;3.00;1.17;;;7.30;99.90;;;;;;954191;149;27764;-79
2022/01/09 07:11:39;;;;;;;1.20;0.73;;;7.30;99.90;;;;;;955747;149;27405;-80
2022/01/09 07:14:05;;;;;;;2.13;0.90;;;7.30;99.90;;;;;;952563;148;27284;-82
2022/01/09 07:16:32;;;;;;;1.87;1.00;;;7.30;99.90;;;;;;947511;149;27329;-82
2022/01/09 07:18:59;;;;;;;2.03;0.90;;;7.30;99.90;;;;;;958807;149;27430;-83
2022/01/09 07:21:25;;;;;;;1.27;1.10;;;7.30;99.90;;;;;;958339;149;27341;-78
2022/01/09 07:23:52;;;;;;;0.93;0.90;;;7.30;99.90;;;;;;956602;148;27310;-81
2022/01/09 07:26:18;;;;;;;1.20;1.10;;;7.30;99.90;;;;;;955641;148;27749;-83
2022/01/09 07:28:45;;;;;;;1.87;1.13;;;7.30;99.90;;;;;;959941;148;27393;-85
2022/01/09 07:31:12;;;;;;;1.07;1.03;;;7.30;99.90;;;;;;949467;149;27337;-79
2022/01/09 07:33:38;;;;;;;4.30;1.47;;;7.30;99.90;;;;;;947760;149;27405;-84
2022/01/09 07:36:05;;;;;;;3.30;1.07;;;7.30;99.90;;;;;;950202;149;27279;-82
2022/01/09 07:38:34;;;;;;;1.63;1.20;;;7.30;99.90;;;;;;953593;149;27931;-82
2022/01/09 07:41:04;;;;;;;2.07;1.20;;;7.40;99.90;;;;;;954869;148;27357;-80
2022/01/09 07:43:30;;;;;;;2.10;1.20;;;7.40;99.90;;;;;;959772;149;27453;-84
2022/01/09 07:45:57;;;;;;;2.63;1.57;;;7.40;99.90;;;;;;957569;149;27324;-84
2022/01/09 07:48:23;;;;;;;3.67;1.63;;;7.40;99.90;;;;;;956718;148;27861;-83
2022/01/09 07:50:50;;;;;;;2.27;1.40;;;7.40;99.90;;;;;;957802;149;27300;-82
2022/01/09 07:53:22;;;;;;;2.63;1.60;;;7.50;99.90;;;;;;955510;149;27316;-83
2022/01/09 07:55:43;;;;;;;1.83;1.40;;;7.50;99.90;;;;;;956534;149;27430;-83
2022/01/09 07:58:10;;;;;;;3.20;1.70;;;7.50;99.90;;;;;;959942;149;27324;-83
2022/01/09 08:00:36;;;;;;;1.77;1.40;;;7.50;99.90;;;;;;952221;149;27329;-81
2022/01/09 08:03:03;;;;;;;1.67;1.30;;;7.60;99.90;;;;;;957411;149;27409;-81
2022/01/09 08:05:30;;;;;;;2.20;1.47;;;7.60;99.90;;;;;;956378;148;27327;-81
2022/01/09 08:07:56;;;;;;;4.83;1.97;;;7.60;99.90;;;;;;952249;148;27397;-79
2022/01/09 08:10:23;;;;;;;3.67;1.50;;;7.60;99.80;;;;;;951302;149;27406;-81
2022/01/09 08:12:49;;;;;;;4.63;1.70;;;7.60;99.80;;;;;;959866;149;27350;-84
2022/01/09 08:15:16;;;;;;;3.00;1.37;;;7.70;99.70;;;;;;951015;149;27283;-83
2022/01/09 08:17:42;;;;;;;2.60;1.50;;;7.70;99.70;;;;;;954604;149;27720;-82
2022/01/09 08:20:09;;;;;;;3.43;1.53;;;7.70;99.70;;;;;;949872;149;27417;-81
2022/01/09 08:22:36;;;;;;;4.43;2.00;;;7.70;99.60;;;;;;952396;149;27437;-83
2022/01/09 08:25:05;;;;;;;4.47;2.00;;;7.70;99.80;;;;;;947262;149;27310;-82
2022/01/09 08:27:29;;;;;;;6.70;2.37;;;7.80;99.50;;;;;;954760;149;27413;-81
2022/01/09 08:29:55;;;;;;;4.17;2.27;;;7.80;99.50;;;;;;949804;149;27337;-81
2022/01/09 08:32:22;;;;;;;2.30;2.00;;;7.80;99.40;;;;;;956131;149;27320;-82
2022/01/09 08:34:49;;;;;;;1.77;1.57;;;7.80;99.30;;;;;;954880;148;27896;-80
2022/01/09 08:37:20;;;;;;;3.63;1.80;;;7.80;99.20;;;;;;954917;148;27688;-80
2022/01/09 08:39:45;;;;;;;3.73;1.73;;;7.90;99.20;;;;;;955023;148;27342;-83
2022/01/09 08:42:12;;;;;;;3.00;1.73;;;7.90;99.10;;;;;;952681;149;27394;-80
2022/01/09 08:44:40;;;;;;;4.57;1.90;;;7.90;99.00;;;;;;954192;149;27432;-81
2022/01/09 08:47:07;;;;;;;4.63;1.70;;;7.90;99.00;;;;;;958038;149;27353;-80
2022/01/09 08:49:34;;;;;;;3.17;1.97;;;7.90;98.90;;;;;;950308;149;27844;-82
2022/01/09 08:52:00;;;;;;;2.37;1.80;;;7.90;98.90;;;;;;953115;148;27348;-83
2022/01/09 08:54:27;;;;;;;4.53;2.00;;;8.00;98.90;;;;;;956011;149;27379;-83
2022/01/09 08:56:53;;;;;;;2.77;1.63;;;8.00;98.80;;;;;;950735;149;27285;-83
2022/01/09 08:59:20;;;;;;;1.83;1.60;;;8.00;98.80;;;;;;958647;149;27300;-78
2022/01/09 09:01:47;;;;;;;2.23;1.43;;;8.00;98.80;;;;;;950425;149;27511;-80
2022/01/09 09:04:13;;;;;;;3.03;1.70;;;8.00;98.80;;;;;;953528;148;27367;-83
2022/01/09 09:06:40;;;;;;;4.73;2.00;;;8.00;98.80;;;;;;955158;148;27260;-81
2022/01/09 09:09:06;;;;;;;5.03;2.00;;;8.00;98.80;;;;;;952260;148;27347;-84
2022/01/09 09:11:33;;;;;;;3.17;1.77;;;8.00;98.90;;;;;;954503;148;27306;-83
2022/01/09 09:14:02;;;;;;;2.57;1.53;;;8.00;98.90;;;;;;956282;148;27231;-83
2022/01/09 09:16:26;;;;;;;3.47;1.70;;;8.00;98.90;;;;;;959778;148;27332;-78
2022/01/09 09:18:53;;;;;;;1.83;1.43;;;8.00;98.90;;;;;;961179;148;28197;-81
2022/01/09 09:21:19;;;;;;;5.03;2.00;;;8.00;98.90;;;;;;957830;148;27468;-83
2022/01/09 09:23:46;;;;;;;2.93;1.77;;;8.00;98.80;;;;;;949575;148;27355;-83
2022/01/09 09:26:12;;;;;;;3.07;1.60;;;8.00;98.80;;;;;;951260;148;27362;-77
2022/01/09 09:28:39;;;;;;;5.40;1.80;;;8.00;98.90;;;;;;958524;148;27354;-81
2022/01/09 09:31:06;;;;;;;4.07;2.07;;;8.00;98.90;;;;;;953797;148;27806;-83
2022/01/09 09:33:32;;;;;;;7.17;2.60;;;8.00;98.90;;;;;;959673;148;27373;-83
2022/01/09 09:36:00;;;;;;;2.73;1.37;;;8.00;98.90;;;;;;958919;148;27419;-81
2022/01/09 09:38:25;;;;;;;2.57;2.03;;;8.00;99.00;;;;;;954090;148;27337;-82
2022/01/09 09:40:52;;;;;;;2.63;1.87;;;8.00;99.00;;;;;;953875;148;27446;-82
2022/01/09 09:43:19;;;;;;;3.80;2.03;;;8.00;99.00;;;;;;950521;148;27296;-81
2022/01/09 09:45:45;;;;;;;2.53;1.93;;;8.00;99.00;;;;;;957566;148;27425;-78
2022/01/09 09:48:12;;;;;;;2.63;1.90;;;8.00;99.10;;;;;;961368;148;27317;-83
2022/01/09 09:50:38;;;;;;;3.40;1.70;;;8.00;99.10;;;;;;951237;148;27636;-83
2022/01/09 09:53:05;;;;;;;3.50;2.20;;;8.00;99.20;;;;;;950474;148;27334;-83
2022/01/09 09:55:31;;;;;;;2.80;2.10;;;8.10;99.20;;;;;;961634;148;27393;-81
2022/01/09 09:58:00;;;;;;;4.10;2.00;;;8.10;99.60;;;;;;958502;148;27387;-76
2022/01/09 10:00:27;;;;;;;3.53;1.87;;;8.10;99.20;;;;;;953341;148;27446;-83
2022/01/09 10:02:56;;;;;;;2.50;2.07;;;8.10;99.10;;;;;;952409;148;27437;-79
2022/01/09 10:05:23;;;;;;;5.30;2.30;;;8.10;99.00;;;;;;961682;146;27338;-81
2022/01/09 10:07:49;;;;;;;4.87;2.20;;;8.20;99.10;;;;;;962836;146;27361;-84
2022/01/09 10:10:16;;;;;;;3.20;1.70;;;8.20;99.10;;;;;;954192;146;27851;-80
2022/01/09 10:12:42;;;;;;;6.13;2.43;;;8.20;99.20;;;;;;950111;146;27348;-83
2022/01/09 10:15:09;;;;;;;3.03;1.93;;;8.30;99.10;;;;;;958657;146;27326;-81
2022/01/09 10:17:35;;;;;;;4.73;1.93;;;8.30;99.20;;;;;;956302;146;27382;-82
2022/01/09 10:20:05;;;;;;;3.27;1.53;;;8.30;99.20;;;;;;948578;146;27343;-81
2022/01/09 10:22:34;;;;;;;4.70;2.20;;;8.40;99.20;;;;;;954226;146;27378;-82
2022/01/09 10:25:19;;;;;;;4.63;1.80;;;8.50;99.20;;;;;;974250;146;27294;-80
2022/01/09 10:27:48;;;;;;;2.10;1.90;;;8.50;99.20;;;;;;954826;146;27337;-84
2022/01/09 10:30:15;;;;;;;3.30;1.77;;;8.60;99.10;;;;;;951335;146;27304;-83
2022/01/09 10:32:41;;;;;;;5.37;1.70;;;8.60;99.00;;;;;;947592;146;27298;-81
2022/01/09 10:35:08;;;;;;;4.90;1.93;;;8.70;99.10;;;;;;947276;146;27262;-83
2022/01/09 10:37:35;;;;;;;2.87;1.67;;;8.70;98.90;;;;;;955386;146;27305;-83
2022/01/09 10:40:01;;;;;;;4.93;1.60;;;8.80;98.50;;;;;;952932;148;27371;-83
2022/01/09 10:42:28;;;;;;;3.27;1.40;;;8.80;98.60;;;;;;949072;146;27360;-81
2022/01/09 10:44:54;;;;;;;3.67;1.50;;;8.90;98.40;;;;;;946412;149;27292;-82
2022/01/09 10:47:21;;;;;;;4.40;2.27;;;8.90;98.20;;;;;;951752;146;27380;-82
2022/01/09 10:49:50;;;;;;;3.03;1.47;;;9.00;98.10;;;;;;957001;146;27411;-83
2022/01/09 10:52:25;;;;;;;4.90;2.30;;;9.00;98.00;;;;;;968376;146;27370;-78
2022/01/09 10:54:52;;;;;;;2.83;1.90;;;9.10;97.90;;;;;;967117;146;27361;-84
2022/01/09 10:57:21;;;;;;;3.17;1.40;;;9.10;97.80;;;;;;953076;146;27267;-83
2022/01/09 10:59:48;;;;;;;4.80;1.73;;;9.20;97.70;;;;;;953279;146;27416;-83
2022/01/09 11:02:14;;;;;;;1.80;1.40;;;9.20;97.60;;;;;;956312;146;27377;-82
2022/01/09 11:04:41;;;;;;;3.03;1.57;;;9.30;97.50;;;;;;955054;146;27607;-83
2022/01/09 11:07:07;;;;;;;5.53;2.00;;;9.30;97.40;;;;;;955086;147;27439;-81
2022/01/09 11:09:34;;;;;;;4.13;1.60;;;9.40;97.20;;;;;;953348;149;28775;-84
2022/01/09 11:12:04;;;;;;;1.73;1.20;;;9.40;97.00;;;;;;952326;149;27326;-83
2022/01/09 11:14:35;;;;;;;2.93;1.60;;;9.40;96.80;;;;;;948142;149;27390;-80
2022/01/09 11:16:57;;;;;;;2.60;1.53;;;9.50;96.70;;;;;;957819;149;27253;-82
2022/01/09 11:19:26;;;;;;;3.20;1.53;;;9.50;96.50;;;;;;951646;149;27337;-81
2022/01/09 11:21:54;;;;;;;2.60;2.10;;;9.50;96.40;;;;;;952411;148;27324;-83
2022/01/09 11:24:37;;;;;;;1.50;1.17;;;9.50;96.20;;;;;;957831;149;27359;-82
2022/01/09 11:27:19;;;;;;;2.53;1.57;;;9.50;96.10;;;;;;961929;148;27669;-82
2022/01/09 11:30:14;;;;;;;1.97;1.50;;;9.50;95.90;;;;;;951929;149;27355;-83
2022/01/09 11:33:00;;;;;;;3.60;1.43;;;9.50;95.90;;;;;;950150;148;27409;-81
2022/01/09 11:35:46;;;;;;;3.10;1.70;;;9.50;96.00;;;;;;954453;149;27380;-83
2022/01/09 11:38:11;;;;;;;4.70;1.60;;;9.60;96.10;;;;;;952906;148;27876;-82
2022/01/09 11:40:40;;;;;;;3.53;1.37;;;9.60;96.00;;;;;;960450;149;27313;-83
2022/01/09 11:43:09;;;;;;;4.23;1.40;;;9.60;96.00;;;;;;957766;148;27322;-79
2022/01/09 11:45:42;;;;;;;2.47;1.60;;;9.70;96.00;;;;;;948496;149;27374;-82
2022/01/09 11:48:08;;;;;;;3.93;1.50;;;9.70;95.70;;;;;;935537;152;27350;-80
2022/01/09 11:50:36;;;;;;;3.40;1.60;;;9.80;95.60;;;;;;963460;146;27307;-82
2022/01/09 11:53:01;;;;;;;4.00;1.60;;;9.80;95.20;;;;;;957708;148;27358;-83
2022/01/09 11:55:41;;;;;;;4.67;1.90;;;9.90;95.00;;;;;;938611;149;27298;-83
2022/01/09 11:58:09;;;;;;;3.87;1.90;;;9.90;94.80;;;;;;951589;149;27257;-80
2022/01/09 12:00:39;;;;;;;3.97;1.63;;;9.90;94.80;;;;;;949963;147;27354;-81
2022/01/09 12:03:27;;;;;;;4.57;2.33;;;9.90;94.20;;;;;;939968;150;27434;-82
2022/01/09 12:06:00;;;;;;;1.77;1.67;;;9.90;94.10;;;;;;957717;148;27320;-82
2022/01/09 12:08:26;;;;;;;5.03;1.97;;;9.90;94.10;;;;;;964424;145;27274;-83
2022/01/09 12:10:53;;;;;;;2.87;2.20;;;9.90;93.90;;;;;;974316;143;27315;-81
2022/01/09 12:13:38;;;;;;;2.80;1.77;;;9.80;93.70;;;;;;966539;144;27404;-82
2022/01/09 12:16:04;;;;;;;4.50;1.80;;;9.80;93.60;;;;;;970714;145;27365;-82
2022/01/09 12:18:40;;;;;;;3.03;1.67;;;9.80;93.70;;;;;;969405;145;27260;-83
2022/01/09 12:21:06;;;;;;;2.97;1.30;;;9.80;93.60;;;;;;962011;145;27300;-82
2022/01/09 12:23:33;;;;;;;5.27;1.57;;;9.80;93.60;;;;;;961235;145;27363;-82
2022/01/09 12:25:59;;;;;;;4.63;1.73;;;9.80;93.50;;;;;;940796;151;27402;-80
2022/01/09 12:28:26;;;;;;;2.27;2.00;;;9.80;93.40;;;;;;943809;149;27371;-81
2022/01/09 12:30:56;;;;;;;3.57;1.87;;;9.80;93.40;;;;;;941934;151;27458;-82
2022/01/09 12:33:25;;;;;;;3.63;1.67;;;9.80;93.30;;;;;;963708;145;27811;-81
2022/01/09 12:36:06;;;;;;;4.30;2.10;;;9.80;93.40;;;;;;931945;151;27451;-81
2022/01/09 12:38:36;;;;;;;2.70;1.87;;;9.80;93.10;;;;;;971100;145;27767;-81
2022/01/09 12:41:05;;;;;;;3.47;1.53;;;9.80;92.90;;;;;;967715;145;27347;-81
2022/01/09 12:43:32;;;;;;;2.83;1.63;;;9.80;92.90;;;;;;962390;147;27266;-81
2022/01/09 12:45:58;;;;;;;2.87;1.53;;;9.80;92.40;;;;;;945320;149;27314;-82
2022/01/09 12:48:27;;;;;;;4.07;1.47;;;9.80;92.70;;;;;;950305;149;27279;-81
2022/01/09 12:50:54;;;;;;;4.07;1.60;;;9.80;92.70;;;;;;962895;144;27383;-79
2022/01/09 12:53:21;;;;;;;3.27;1.43;;;9.80;92.70;;;;;;962242;145;28079;-79
2022/01/09 12:55:53;;;;;;;3.73;1.67;;;9.80;92.60;;;;;;962192;147;27419;-79
2022/01/09 12:58:32;;;;;;;2.50;1.37;;;9.80;92.60;;;;;;968564;143;27288;-82
2022/01/09 13:00:58;;;;;;;7.60;1.67;;;9.80;92.70;;;;;;970732;144;27311;-82